Terminal Aerodrome Forecast
Issued by NWS Mt. Holly, NJ

Home | Current Version | Previous Version | Text Only | Print | Product List | Glossary On
Versions: 1 2 3 4 5 6 7 8 9 10 11 12 13 14 15 16 17 18 19 20 21 22 23 24 25 26 27 28 29 30 31 32 33 34
914
FTUS41 KPHI 041318 AAA
TAFPHL
TAF AMD
KPHL 041318Z 0413/0518 08008KT P6SM OVC008
     FM041500 06008KT 6SM -SHRA OVC008
      TEMPO 0415/0419 2SM RA BR OVC005
     FM042200 05010KT 5SM -DZ BR OVC007
     FM051500 05010G18KT P6SM OVC010=

USA.gov is the U.S. government's official web portal to all federal, state and local government web resources and services.